createdAt,value
2023-01-02T00:01:28.131Z,16.73
2023-01-02T00:03:59.496Z,10.57
2023-01-02T00:06:27.322Z,13.60
2023-01-02T00:08:54.900Z,21.85
2023-01-02T00:11:22.279Z,24.25
2023-01-02T00:13:49.788Z,28.75
2023-01-02T00:16:17.676Z,34.58
2023-01-02T00:18:45.042Z,33.85
2023-01-02T00:21:12.579Z,39.92
2023-01-02T00:23:39.986Z,33.65
2023-01-02T00:26:07.776Z,38.35
2023-01-02T00:28:37.958Z,37.08
2023-01-02T00:31:14.382Z,37.13
2023-01-02T00:33:42.118Z,36.70
2023-01-02T00:36:13.508Z,32.03
2023-01-02T00:38:41.773Z,31.73
2023-01-02T00:41:10.088Z,34.15
2023-01-02T00:43:38.951Z,34.50
2023-01-02T00:46:11.497Z,30.55
2023-01-02T00:48:40.533Z,33.33
2023-01-02T00:51:09.084Z,26.42
2023-01-02T00:53:36.915Z,31.75
2023-01-02T00:56:04.726Z,28.55
2023-01-02T00:58:32.368Z,32.20
2023-01-02T01:00:59.990Z,28.27
2023-01-02T01:03:27.667Z,29.80
2023-01-02T01:05:56.307Z,22.13
2023-01-02T01:08:24.084Z,25.75
2023-01-02T01:10:51.972Z,21.27
2023-01-02T01:13:19.376Z,23.48
2023-01-02T01:15:47.516Z,23.52
2023-01-02T01:18:15.122Z,25.10
2023-01-02T01:20:42.665Z,21.27
2023-01-02T01:23:10.210Z,17.52
2023-01-02T01:25:38.218Z,17.30
2023-01-02T01:28:05.748Z,19.77
2023-01-02T01:30:33.308Z,16.30
2023-01-02T01:33:00.893Z,21.50
2023-01-02T01:35:28.331Z,20.27
2023-01-02T01:37:55.764Z,18.33
2023-01-02T01:40:23.286Z,16.70
2023-01-02T01:42:52.120Z,18.52
2023-01-02T01:45:22.510Z,17.92
2023-01-02T01:47:56.808Z,18.15
2023-01-02T01:50:36.095Z,16.77
2023-01-02T01:53:17.977Z,12.30
2023-01-02T01:55:57.288Z,15.82
2023-01-02T01:58:33.317Z,12.82
2023-01-02T02:01:02.155Z,12.88
2023-01-02T02:03:32.907Z,14.82
2023-01-02T02:06:02.489Z,14.05
2023-01-02T02:08:57.710Z,11.43
2023-01-02T02:11:25.502Z,11.32
2023-01-02T02:13:55.291Z,11.70
2023-01-02T02:16:42.317Z,11.75
2023-01-02T02:19:43.170Z,8.75
2023-01-02T02:23:17.426Z,12.07
2023-01-02T02:26:04.423Z,10.25
2023-01-02T02:29:12.626Z,12.13
2023-01-02T02:31:58.714Z,12.23
2023-01-02T02:34:34.809Z,9.50
2023-01-02T02:37:23.118Z,12.27
2023-01-02T02:40:08.962Z,11.45
2023-01-02T02:42:53.283Z,8.48
2023-01-02T02:45:32.644Z,7.55
2023-01-02T02:48:44.590Z,8.50
2023-01-02T02:51:52.751Z,7.60
2023-01-02T02:54:40.632Z,10.27
2023-01-02T02:57:09.909Z,11.93
2023-01-02T02:59:39.146Z,8.85
2023-01-02T03:02:06.754Z,9.00
2023-01-02T03:04:35.476Z,11.07
2023-01-02T03:07:57.263Z,8.80
2023-01-02T03:10:52.653Z,5.25
2023-01-02T03:13:54.651Z,7.45
2023-01-02T03:16:43.620Z,9.80
2023-01-02T03:19:22.442Z,8.90
2023-01-02T03:22:22.387Z,8.35
2023-01-02T03:24:54.496Z,5.38
2023-01-02T03:27:26.911Z,9.18
2023-01-02T03:30:02.055Z,5.70
2023-01-02T03:32:55.550Z,6.57
2023-01-02T03:35:29.641Z,5.93
2023-01-02T03:37:59.940Z,5.47
2023-01-02T03:40:34.635Z,5.32
2023-01-02T03:43:25.912Z,6.50
2023-01-02T03:46:02.345Z,7.82
2023-01-02T03:48:55.942Z,12.15
2023-01-02T03:51:23.499Z,5.70
2023-01-02T03:53:53.228Z,6.15
2023-01-02T03:56:46.059Z,7.88
2023-01-02T03:59:38.818Z,6.13
2023-01-02T04:02:47.218Z,5.18
2023-01-02T04:05:33.169Z,6.45
2023-01-02T04:08:32.387Z,5.13
2023-01-02T04:11:02.364Z,6.53
2023-01-02T04:13:54.289Z,6.50
2023-01-02T04:16:26.337Z,6.85
2023-01-02T04:19:31.822Z,6.40
2023-01-02T04:22:06.811Z,9.52
2023-01-02T04:24:40.724Z,6.13
2023-01-02T04:27:14.915Z,6.57
2023-01-02T04:29:42.651Z,7.30
2023-01-02T04:32:22.442Z,6.00
2023-01-02T04:34:51.550Z,6.60
2023-01-02T04:37:34.305Z,7.00
2023-01-02T04:40:11.506Z,5.50
2023-01-02T04:42:39.006Z,5.50
2023-01-02T04:45:07.128Z,7.10
2023-01-02T04:47:34.856Z,7.85
2023-01-02T04:50:03.203Z,5.15
2023-01-02T04:52:35.092Z,6.75
2023-01-02T04:55:09.875Z,5.03
2023-01-02T04:57:38.478Z,4.38
2023-01-02T05:00:08.068Z,8.90
2023-01-02T05:02:40.477Z,7.18
2023-01-02T05:05:09.221Z,4.88
2023-01-02T05:07:37.817Z,5.90
2023-01-02T05:10:09.105Z,6.85
2023-01-02T05:12:39.298Z,4.82
2023-01-02T05:15:09.512Z,4.78
2023-01-02T05:17:42.501Z,5.97
2023-01-02T05:20:13.138Z,6.60
2023-01-02T05:23:01.029Z,5.18
2023-01-02T05:25:33.454Z,4.82
2023-01-02T05:28:02.683Z,3.72
2023-01-02T05:30:30.580Z,5.72
2023-01-02T05:32:58.382Z,4.45
2023-01-02T05:35:32.152Z,3.00
2023-01-02T05:38:00.547Z,4.90
2023-01-02T05:40:28.054Z,4.60
2023-01-02T05:42:55.501Z,3.67
2023-01-02T05:45:23.384Z,4.60
2023-01-02T05:47:51.018Z,5.40
2023-01-02T05:50:18.582Z,5.15
2023-01-02T05:52:46.248Z,4.28
2023-01-02T05:55:14.223Z,2.72
2023-01-02T05:57:42.691Z,7.00
2023-01-02T06:00:11.109Z,6.10
2023-01-02T06:02:47.531Z,4.15
2023-01-02T06:05:16.204Z,3.40
2023-01-02T06:07:43.890Z,3.72
2023-01-02T06:10:11.814Z,5.65
2023-01-02T06:12:39.588Z,5.63
2023-01-02T06:15:08.159Z,4.15
2023-01-02T06:17:35.733Z,3.20
2023-01-02T06:20:03.140Z,4.15
2023-01-02T06:22:31.099Z,3.47
2023-01-02T06:24:58.541Z,5.57
2023-01-02T06:27:26.103Z,3.92
2023-01-02T06:29:53.597Z,7.43
2023-01-02T06:32:20.927Z,5.45
2023-01-02T06:34:48.719Z,3.88
2023-01-02T06:37:16.097Z,4.13
2023-01-02T06:39:43.746Z,5.57
2023-01-02T06:42:11.288Z,5.70
2023-01-02T06:44:38.837Z,3.88
2023-01-02T06:47:07.093Z,6.47
2023-01-02T06:49:34.844Z,22.42
2023-01-02T06:52:02.540Z,5.38
2023-01-02T06:54:29.954Z,3.90
2023-01-02T06:56:57.587Z,6.72
2023-01-02T06:59:25.146Z,4.50
2023-01-02T07:01:53.243Z,9.88
2023-01-02T07:04:21.026Z,7.38
2023-01-02T07:06:48.651Z,5.95
2023-01-02T07:09:16.480Z,5.07
2023-01-02T07:11:43.994Z,7.85
2023-01-02T07:14:11.407Z,7.95
2023-01-02T07:16:39.035Z,3.90
2023-01-02T07:19:06.559Z,6.38
2023-01-02T07:21:34.013Z,7.22
2023-01-02T07:24:01.385Z,4.40
2023-01-02T07:26:28.977Z,7.38
2023-01-02T07:28:56.570Z,7.20
2023-01-02T07:31:24.251Z,6.90
2023-01-02T07:33:51.877Z,11.65
2023-01-02T07:36:22.628Z,5.30
2023-01-02T07:38:54.949Z,6.22
2023-01-02T07:41:26.022Z,9.27
2023-01-02T07:43:58.520Z,6.68
2023-01-02T07:46:26.209Z,6.72
2023-01-02T07:48:53.800Z,12.43
2023-01-02T07:51:27.043Z,7.13
2023-01-02T07:53:56.832Z,6.75
2023-01-02T07:56:25.890Z,6.88
2023-01-02T07:58:53.788Z,7.07
2023-01-02T08:01:21.504Z,5.60
2023-01-02T08:03:49.173Z,9.70
2023-01-02T08:06:19.266Z,6.05
2023-01-02T08:08:47.400Z,4.63
2023-01-02T08:11:21.311Z,3.92
2023-01-02T08:13:49.503Z,8.57
2023-01-02T08:16:20.168Z,7.80
2023-01-02T08:18:48.386Z,11.48
2023-01-02T08:21:15.925Z,4.53
2023-01-02T08:23:43.492Z,6.07
2023-01-02T08:26:11.739Z,5.10
2023-01-02T08:28:41.539Z,5.32
2023-01-02T08:31:17.226Z,6.28
2023-01-02T08:33:45.159Z,4.72
2023-01-02T08:36:15.002Z,6.20
2023-01-02T08:38:43.306Z,7.05
2023-01-02T08:41:10.984Z,7.90
2023-01-02T08:43:38.978Z,4.53
2023-01-02T08:46:09.820Z,9.95
2023-01-02T08:48:40.201Z,6.35
2023-01-02T08:51:07.827Z,7.60
2023-01-02T08:53:35.224Z,4.97
2023-01-02T08:56:29.779Z,8.32
2023-01-02T08:59:16.188Z,6.38
2023-01-02T09:01:44.624Z,8.00
2023-01-02T09:04:13.473Z,6.15
2023-01-02T09:06:43.639Z,7.93
2023-01-02T09:09:13.529Z,5.07
2023-01-02T09:11:50.904Z,4.47
2023-01-02T09:14:21.742Z,6.20
2023-01-02T09:16:50.980Z,6.57
2023-01-02T09:19:18.933Z,3.97
2023-01-02T09:21:46.536Z,6.40
2023-01-02T09:24:14.147Z,4.85
2023-01-02T09:26:44.459Z,8.00
2023-01-02T09:29:13.231Z,7.15
2023-01-02T09:31:41.685Z,3.85
2023-01-02T09:34:09.259Z,5.65
2023-01-02T09:36:37.078Z,6.60
2023-01-02T09:39:05.885Z,3.95
2023-01-02T09:41:42.340Z,8.70
2023-01-02T09:44:34.132Z,5.35
2023-01-02T09:47:13.883Z,6.30
2023-01-02T09:49:51.412Z,4.80
2023-01-02T09:52:42.844Z,6.20
2023-01-02T09:55:29.585Z,4.97
2023-01-02T09:58:54.655Z,5.15
2023-01-02T10:01:55.266Z,4.53
2023-01-02T10:04:30.121Z,5.00
2023-01-02T10:07:37.192Z,3.50
2023-01-02T10:10:44.851Z,7.60
2023-01-02T10:14:18.009Z,5.78
2023-01-02T10:16:44.221Z,2.28
2023-01-02T10:19:28.584Z,3.78
2023-01-02T10:22:00.286Z,3.42
2023-01-02T10:24:40.937Z,6.78
2023-01-02T10:27:26.289Z,3.67
2023-01-02T10:32:38.234Z,9.98
2023-01-02T10:35:08.326Z,9.95
2023-01-02T10:37:37.016Z,10.20
2023-01-02T10:40:05.486Z,7.40
2023-01-02T10:42:34.262Z,7.03
2023-01-02T10:45:02.200Z,4.75
2023-01-02T10:47:40.344Z,8.68
2023-01-02T10:50:21.450Z,6.13
2023-01-02T10:52:55.004Z,4.53
2023-01-02T10:55:41.487Z,6.13
2023-01-02T10:58:24.234Z,3.03
2023-01-02T11:01:08.432Z,5.72
2023-01-02T11:03:36.130Z,7.00
2023-01-02T11:06:26.245Z,7.20
2023-01-02T11:09:05.047Z,8.38
2023-01-02T11:11:33.700Z,9.23
2023-01-02T11:14:09.077Z,6.68
2023-01-02T11:16:42.221Z,5.85
2023-01-02T11:19:29.189Z,8.68
2023-01-02T11:21:57.614Z,5.47
2023-01-02T11:24:28.626Z,6.82
2023-01-02T11:26:57.211Z,7.70
2023-01-02T11:29:37.219Z,7.00
2023-01-02T11:32:07.844Z,5.70
2023-01-02T11:34:40.172Z,5.57
2023-01-02T11:37:14.157Z,7.03
2023-01-02T11:39:42.659Z,8.05
2023-01-02T11:42:28.863Z,7.85
2023-01-02T11:45:17.084Z,7.90
2023-01-02T11:47:56.323Z,6.78
2023-01-02T11:50:30.970Z,7.13
2023-01-02T11:53:15.810Z,9.10
2023-01-02T11:55:56.345Z,7.65
2023-01-02T11:58:50.938Z,8.32
2023-01-02T12:01:50.780Z,7.97
2023-01-02T12:04:18.547Z,7.10
2023-01-02T12:07:05.562Z,7.75
2023-01-02T12:10:08.436Z,4.65
2023-01-02T12:13:20.369Z,7.10
2023-01-02T12:16:12.899Z,9.43
2023-01-02T12:18:51.593Z,9.02
2023-01-02T12:21:52.575Z,8.25
2023-01-02T12:24:40.756Z,6.68
2023-01-02T12:27:47.182Z,9.80
2023-01-02T12:30:21.198Z,11.10
2023-01-02T12:33:38.127Z,7.40
2023-01-02T12:36:20.342Z,7.43
2023-01-02T12:39:22.998Z,5.38
2023-01-02T12:42:08.355Z,4.88
2023-01-02T12:47:39.379Z,5.78
2023-01-02T12:51:04.772Z,3.10
2023-01-02T12:54:19.730Z,12.10
2023-01-02T12:56:45.950Z,9.60
2023-01-02T12:59:35.306Z,9.68
2023-01-02T13:02:45.724Z,9.60
2023-01-02T13:05:18.942Z,10.57
2023-01-02T13:08:04.015Z,12.90
2023-01-02T13:10:31.635Z,8.40
2023-01-02T13:13:01.078Z,10.25
2023-01-02T13:15:35.287Z,4.32
2023-01-02T13:18:24.298Z,9.17
2023-01-02T13:21:09.554Z,14.32
2023-01-02T13:23:44.118Z,9.63
2023-01-02T13:26:17.693Z,19.20
2023-01-02T13:29:16.784Z,13.18
2023-01-02T13:31:54.221Z,20.13
2023-01-02T13:34:28.783Z,10.63
2023-01-02T13:37:14.242Z,17.27
2023-01-02T13:39:47.961Z,21.48
2023-01-02T13:42:52.810Z,12.00
2023-01-02T13:45:50.869Z,15.48
2023-01-02T13:48:30.676Z,17.85
2023-01-02T13:51:07.001Z,18.63
2023-01-02T13:53:46.802Z,14.88
2023-01-02T13:56:28.685Z,19.27
2023-01-02T13:59:01.839Z,10.98
2023-01-02T14:01:41.876Z,16.75
2023-01-02T14:04:20.249Z,12.95
2023-01-02T14:06:53.587Z,20.10
2023-01-02T14:09:24.357Z,11.00
2023-01-02T14:12:02.347Z,13.15
2023-01-02T14:14:48.230Z,12.07
2023-01-02T14:17:40.571Z,10.00
2023-01-02T14:20:26.991Z,15.60
2023-01-02T14:23:02.147Z,8.63
2023-01-02T14:25:32.599Z,9.25
2023-01-02T14:28:06.201Z,6.75
2023-01-02T14:30:43.391Z,11.43
2023-01-02T14:33:36.731Z,9.93
2023-01-02T14:36:10.298Z,11.30
2023-01-02T14:38:43.722Z,6.00
2023-01-02T14:42:13.832Z,11.52
2023-01-02T14:44:55.045Z,11.90
2023-01-02T14:47:40.465Z,4.13
2023-01-02T14:50:26.674Z,5.22
2023-01-02T14:53:26.383Z,8.48
2023-01-02T14:56:00.090Z,8.38
2023-01-02T14:58:36.398Z,7.75
2023-01-02T15:01:05.518Z,5.38
2023-01-02T15:03:53.396Z,5.78
2023-01-02T15:06:43.671Z,6.65
2023-01-02T15:09:25.840Z,4.63
2023-01-02T15:12:18.154Z,3.60
2023-01-02T15:14:48.508Z,3.75
2023-01-02T15:17:21.191Z,5.45
2023-01-02T15:19:49.035Z,6.38
2023-01-02T15:22:23.371Z,5.32
2023-01-02T15:24:54.083Z,4.50
2023-01-02T15:27:25.075Z,4.30
2023-01-02T15:30:03.179Z,3.67
2023-01-02T15:32:37.115Z,5.05
2023-01-02T15:35:23.452Z,2.53
2023-01-02T15:37:51.694Z,5.53
2023-01-02T15:40:34.544Z,3.88
2023-01-02T15:43:31.413Z,5.90
2023-01-02T15:45:59.285Z,5.47
2023-01-02T15:48:28.892Z,12.65
2023-01-02T15:50:59.330Z,11.00
2023-01-02T15:53:42.985Z,5.55
2023-01-02T15:56:35.557Z,1.77
2023-01-02T15:59:04.424Z,3.50
2023-01-02T16:01:32.102Z,11.50
2023-01-02T16:04:30.756Z,16.55
2023-01-02T16:07:01.542Z,15.52
2023-01-02T16:09:34.049Z,22.45
2023-01-02T16:12:03.807Z,20.60
2023-01-02T16:14:41.878Z,22.83
2023-01-02T16:17:30.484Z,23.88
2023-01-02T16:20:01.437Z,26.20
2023-01-02T16:22:45.926Z,23.38
2023-01-02T16:25:24.180Z,28.20
2023-01-02T16:28:35.664Z,24.35
2023-01-02T16:31:16.325Z,26.15
2023-01-02T16:33:46.090Z,29.05
2023-01-02T16:36:19.028Z,26.20
2023-01-02T16:39:01.737Z,31.63
2023-01-02T16:41:37.270Z,30.38
2023-01-02T16:44:16.759Z,28.05
2023-01-02T16:46:46.937Z,30.90
2023-01-02T16:49:22.049Z,22.85
2023-01-02T16:51:53.112Z,26.42
2023-01-02T16:54:21.131Z,24.67
2023-01-02T16:56:50.386Z,29.83
2023-01-02T16:59:17.841Z,25.02
2023-01-02T17:01:45.688Z,22.02
2023-01-02T17:04:14.839Z,22.02
2023-01-02T17:06:42.673Z,24.88
2023-01-02T17:09:10.141Z,24.30
2023-01-02T17:11:37.992Z,18.75
2023-01-02T17:14:05.766Z,20.45
2023-01-02T17:16:33.108Z,16.20
2023-01-02T17:19:00.792Z,20.23
2023-01-02T17:21:32.783Z,20.60
2023-01-02T17:24:01.358Z,16.45
2023-01-02T17:26:29.971Z,21.20
2023-01-02T17:29:00.216Z,15.38
2023-01-02T17:31:28.676Z,14.18
2023-01-02T17:33:56.381Z,18.63
2023-01-02T17:36:23.695Z,13.80
2023-01-02T17:38:51.124Z,13.75
2023-01-02T17:41:18.753Z,15.18
2023-01-02T17:44:01.837Z,13.98
2023-01-02T17:47:09.152Z,14.25
2023-01-02T17:49:21.209Z,13.35
2023-01-02T17:51:49.071Z,13.18
2023-01-02T17:54:20.047Z,11.90
2023-01-02T17:56:47.561Z,10.48
2023-01-02T17:59:19.406Z,13.10
2023-01-02T18:01:48.037Z,12.68
2023-01-02T18:04:16.477Z,10.02
2023-01-02T18:06:44.200Z,11.02
2023-01-02T18:09:12.623Z,11.00
2023-01-02T18:11:40.130Z,11.85
2023-01-02T18:14:23.506Z,7.18
2023-01-02T18:16:52.031Z,8.98
2023-01-02T18:19:26.389Z,14.57
2023-01-02T18:21:54.564Z,15.23
2023-01-02T18:24:30.115Z,8.85
2023-01-02T18:27:13.598Z,16.13
2023-01-02T18:29:42.548Z,12.80
2023-01-02T18:32:19.290Z,14.88
2023-01-02T18:37:26.136Z,13.45
2023-01-02T18:39:55.468Z,12.23
2023-01-02T18:42:32.364Z,10.13
2023-01-02T18:45:00.845Z,12.18
2023-01-02T18:47:51.174Z,8.45
2023-01-02T18:50:39.062Z,9.63
2023-01-02T18:53:22.089Z,9.95
2023-01-02T18:55:55.436Z,10.25
2023-01-02T18:59:06.774Z,8.43
2023-01-02T19:01:45.101Z,8.75
2023-01-02T19:04:28.170Z,8.90
2023-01-02T19:07:32.595Z,8.75
2023-01-02T19:10:14.805Z,6.70
2023-01-02T19:13:07.922Z,7.80
2023-01-02T19:15:48.793Z,7.85
2023-01-02T19:18:33.693Z,8.85
2023-01-02T19:21:28.527Z,5.60
2023-01-02T19:24:00.448Z,9.20
2023-01-02T19:26:36.539Z,7.10
2023-01-02T19:29:10.233Z,6.97
2023-01-02T19:31:56.038Z,8.20
2023-01-02T19:34:56.855Z,7.13
2023-01-02T19:37:46.759Z,8.70
2023-01-02T19:40:20.117Z,6.45
2023-01-02T19:42:49.756Z,11.50
2023-01-02T19:45:26.134Z,5.30
2023-01-02T19:47:56.829Z,7.55
2023-01-02T19:50:27.101Z,7.78
2023-01-02T19:52:54.905Z,8.27
2023-01-02T19:55:22.755Z,8.77
2023-01-02T19:57:50.308Z,9.20
2023-01-02T20:00:21.684Z,7.95
2023-01-02T20:02:51.818Z,8.05
2023-01-02T20:05:22.981Z,3.72
2023-01-02T20:07:52.486Z,4.63
2023-01-02T20:10:20.690Z,6.85
2023-01-02T20:12:48.387Z,8.70
2023-01-02T20:15:24.089Z,5.32
2023-01-02T20:17:56.143Z,9.48
2023-01-02T20:20:26.806Z,5.95
2023-01-02T20:22:55.209Z,6.47
2023-01-02T20:25:25.591Z,9.25
2023-01-02T20:27:54.946Z,6.35
2023-01-02T20:30:25.158Z,4.72
2023-01-02T20:32:54.621Z,5.75
2023-01-02T20:35:22.915Z,11.25
2023-01-02T20:37:50.375Z,5.00
2023-01-02T20:40:18.076Z,6.65
2023-01-02T20:42:46.867Z,5.65
2023-01-02T20:45:14.799Z,5.85
2023-01-02T20:47:42.514Z,5.15
2023-01-02T20:50:10.138Z,5.25
2023-01-02T20:52:37.547Z,6.70
2023-01-02T20:55:05.854Z,6.93
2023-01-02T20:57:33.591Z,3.70
2023-01-02T21:00:01.606Z,2.28
2023-01-02T21:02:29.669Z,3.75
2023-01-02T21:04:57.805Z,5.13
2023-01-02T21:07:26.545Z,2.97
2023-01-02T21:09:57.770Z,8.13
2023-01-02T21:12:44.197Z,5.88
2023-01-02T21:15:31.375Z,9.77
2023-01-02T21:17:59.027Z,5.82
2023-01-02T21:20:26.671Z,10.63
2023-01-02T21:22:54.324Z,6.35
2023-01-02T21:25:21.827Z,9.35
2023-01-02T21:27:49.298Z,7.35
2023-01-02T21:30:17.009Z,4.90
2023-01-02T21:32:45.484Z,8.23
2023-01-02T21:35:13.411Z,5.07
2023-01-02T21:37:40.841Z,3.40
2023-01-02T21:40:08.986Z,6.47
2023-01-02T21:42:44.373Z,7.13
2023-01-02T21:45:12.508Z,4.32
2023-01-02T21:47:40.540Z,3.33
2023-01-02T21:50:08.959Z,3.35
2023-01-02T21:52:37.465Z,5.50
2023-01-02T21:55:08.017Z,4.53
2023-01-02T21:58:11.841Z,6.30
2023-01-02T22:00:27.979Z,5.55
2023-01-02T22:02:56.372Z,5.30
2023-01-02T22:05:24.343Z,6.15
2023-01-02T22:07:51.860Z,8.20
2023-01-02T22:10:19.630Z,6.47
2023-01-02T22:12:47.296Z,8.98
2023-01-02T22:15:14.867Z,7.75
2023-01-02T22:17:42.634Z,7.13
2023-01-02T22:20:11.302Z,12.20
2023-01-02T22:22:39.050Z,13.13
2023-01-02T22:25:07.480Z,13.07
2023-01-02T22:27:34.979Z,9.18
2023-01-02T22:30:23.300Z,10.88
2023-01-02T22:32:51.525Z,6.25
2023-01-02T22:35:19.195Z,9.32
2023-01-02T22:37:46.851Z,10.48
2023-01-02T22:40:14.378Z,9.75
2023-01-02T22:43:03.432Z,7.95
2023-01-02T22:45:42.220Z,5.90
2023-01-02T22:48:21.205Z,8.32
2023-01-02T22:50:51.487Z,5.50
2023-01-02T22:53:32.771Z,11.05
2023-01-02T22:56:12.013Z,8.20
2023-01-02T22:58:39.512Z,5.13
2023-01-02T23:01:32.991Z,5.97
2023-01-02T23:04:01.258Z,5.30
2023-01-02T23:06:29.789Z,6.63
2023-01-02T23:08:57.193Z,6.03
2023-01-02T23:11:24.864Z,9.30
2023-01-02T23:13:56.576Z,7.25
2023-01-02T23:17:01.250Z,6.18
2023-01-02T23:19:28.840Z,12.40
2023-01-02T23:21:59.601Z,4.70
2023-01-02T23:24:37.292Z,9.90
2023-01-02T23:27:09.015Z,9.45
2023-01-02T23:29:37.524Z,3.90
2023-01-02T23:32:06.420Z,4.35
2023-01-02T23:34:33.926Z,4.53
2023-01-02T23:37:03.724Z,6.70
2023-01-02T23:39:33.113Z,6.53
2023-01-02T23:42:01.032Z,4.80
2023-01-02T23:44:28.633Z,12.07
2023-01-02T23:46:58.089Z,12.65
2023-01-02T23:49:25.713Z,10.73
2023-01-02T23:51:53.995Z,10.15
2023-01-02T23:54:22.429Z,7.97
2023-01-02T23:56:51.616Z,12.65
2023-01-02T23:59:23.124Z,11.82
